createdAt,value
2023-04-24T00:00:59.425Z,12.66
2023-04-24T00:21:02.291Z,12.95
2023-04-24T00:41:04.920Z,12.47
2023-04-24T01:01:09.363Z,12.62
2023-04-24T01:21:11.979Z,12.70
2023-04-24T01:41:14.592Z,12.73
2023-04-24T02:01:17.688Z,12.91
2023-04-24T02:21:20.374Z,12.70
2023-04-24T02:41:23.073Z,12.52
2023-04-24T03:01:25.708Z,12.49
2023-04-24T03:21:28.925Z,12.27
2023-04-24T04:22:34.440Z,12.08
2023-04-24T04:42:37.095Z,14.42
2023-04-24T05:02:39.899Z,15.88
2023-04-24T05:22:42.831Z,16.95
2023-04-24T05:42:45.528Z,17.24
2023-04-24T06:02:48.599Z,17.99
2023-04-24T06:22:51.408Z,19.15
2023-04-24T06:42:54.122Z,19.47
2023-04-24T07:02:56.849Z,19.50
2023-04-24T07:22:59.618Z,19.66
2023-04-24T07:43:02.504Z,19.48
2023-04-24T08:03:05.368Z,19.70
2023-04-24T08:23:08.166Z,20.04
2023-04-24T08:43:10.835Z,20.53
2023-04-24T09:03:13.723Z,21.26
2023-04-24T09:23:18.609Z,21.93
2023-04-24T09:43:21.243Z,22.78
2023-04-24T10:03:24.035Z,22.84
2023-04-24T10:23:26.689Z,23.54
2023-04-24T10:43:29.337Z,24.55
2023-04-24T11:03:32.138Z,25.49
2023-04-24T11:23:34.911Z,25.40
2023-04-24T11:43:37.606Z,25.76
2023-04-24T12:03:40.971Z,25.40
2023-04-24T12:23:43.929Z,24.09
2023-04-24T12:43:46.594Z,23.35
2023-04-24T13:03:50.056Z,24.50
2023-04-24T13:23:52.801Z,22.63
2023-04-24T13:43:55.676Z,23.39
2023-04-24T14:03:58.510Z,22.65
2023-04-24T14:24:01.329Z,21.00
2023-04-24T14:44:04.120Z,20.18
2023-04-24T15:04:07.350Z,19.25
2023-04-24T15:24:10.969Z,19.70
2023-04-24T15:44:13.656Z,19.31
2023-04-24T16:04:16.623Z,19.32
2023-04-24T16:24:19.734Z,19.26
2023-04-24T16:44:22.809Z,18.64
2023-04-24T17:04:25.650Z,18.46
2023-04-24T17:24:28.667Z,17.43
2023-04-24T17:44:31.588Z,16.90
2023-04-24T18:04:34.408Z,16.55
2023-04-24T18:24:37.572Z,16.49
2023-04-24T18:44:44.163Z,16.02
2023-04-24T19:04:46.987Z,15.79
2023-04-24T19:24:49.987Z,15.60
2023-04-24T19:44:52.815Z,15.54
2023-04-24T20:04:55.497Z,15.56
2023-04-24T20:24:58.464Z,15.59
2023-04-24T20:45:01.336Z,15.68
2023-04-24T21:05:04.277Z,14.93
2023-04-24T21:25:07.644Z,14.39
2023-04-24T21:45:10.307Z,14.47
2023-04-24T22:05:17.055Z,14.15
2023-04-24T22:25:19.872Z,11.63
2023-04-24T22:45:25.011Z,11.27
2023-04-24T23:05:28.216Z,11.41
2023-04-24T23:25:31.130Z,11.39
2023-04-24T23:45:34.298Z,11.44
